sensor_id;sensor_type;location;lat;lon;timestamp;temperature;humidity
52889;DHT22;41413;52.770;6.892;2023-08-20T00:01:04;17.70;99.90
52889;DHT22;41413;52.770;6.892;2023-08-20T00:03:32;17.70;99.90
52889;DHT22;41413;52.770;6.892;2023-08-20T00:05:59;17.70;99.90
52889;DHT22;41413;52.770;6.892;2023-08-20T00:08:26;17.80;99.90
52889;DHT22;41413;52.770;6.892;2023-08-20T00:10:52;17.70;99.90
52889;DHT22;41413;52.770;6.892;2023-08-20T00:13:19;17.60;99.90
52889;DHT22;41413;52.770;6.892;2023-08-20T00:15:46;17.60;99.90
52889;DHT22;41413;52.770;6.892;2023-08-20T00:18:13;17.60;99.90
52889;DHT22;41413;52.770;6.892;2023-08-20T00:20:40;17.50;99.90
52889;DHT22;41413;52.770;6.892;2023-08-20T00:23:08;17.50;99.90
52889;DHT22;41413;52.770;6.892;2023-08-20T00:25:35;17.50;99.90
52889;DHT22;41413;52.770;6.892;2023-08-20T00:28:02;17.50;99.90
52889;DHT22;41413;52.770;6.892;2023-08-20T00:30:29;17.40;99.90
52889;DHT22;41413;52.770;6.892;2023-08-20T00:32:56;17.40;99.90
52889;DHT22;41413;52.770;6.892;2023-08-20T00:35:23;17.40;99.90
52889;DHT22;41413;52.770;6.892;2023-08-20T00:37:50;17.50;99.90
52889;DHT22;41413;52.770;6.892;2023-08-20T00:40:16;17.50;99.90
52889;DHT22;41413;52.770;6.892;2023-08-20T00:42:43;17.50;99.90
52889;DHT22;41413;52.770;6.892;2023-08-20T00:45:10;17.50;99.90
52889;DHT22;41413;52.770;6.892;2023-08-20T00:47:37;17.50;99.90
52889;DHT22;41413;52.770;6.892;2023-08-20T00:50:06;17.60;99.90
52889;DHT22;41413;52.770;6.892;2023-08-20T00:52:34;17.60;99.90
52889;DHT22;41413;52.770;6.892;2023-08-20T00:55:11;17.50;99.90
52889;DHT22;41413;52.770;6.892;2023-08-20T00:57:40;17.40;99.90
52889;DHT22;41413;52.770;6.892;2023-08-20T01:00:08;17.40;99.90
52889;DHT22;41413;52.770;6.892;2023-08-20T01:02:38;17.40;99.90
52889;DHT22;41413;52.770;6.892;2023-08-20T01:05:08;17.50;99.90
52889;DHT22;41413;52.770;6.892;2023-08-20T01:13:00;17.30;99.90
52889;DHT22;41413;52.770;6.892;2023-08-20T01:15:27;17.30;99.90
52889;DHT22;41413;52.770;6.892;2023-08-20T01:17:54;17.30;99.90
52889;DHT22;41413;52.770;6.892;2023-08-20T01:20:35;17.30;99.90
52889;DHT22;41413;52.770;6.892;2023-08-20T01:26:08;17.30;99.90
52889;DHT22;41413;52.770;6.892;2023-08-20T01:28:38;17.30;99.90
52889;DHT22;41413;52.770;6.892;2023-08-20T01:31:06;17.30;99.90
52889;DHT22;41413;52.770;6.892;2023-08-20T01:33:34;17.20;99.90
52889;DHT22;41413;52.770;6.892;2023-08-20T01:36:01;17.30;99.90
52889;DHT22;41413;52.770;6.892;2023-08-20T01:38:27;17.30;99.90
52889;DHT22;41413;52.770;6.892;2023-08-20T01:40:54;17.30;99.90
52889;DHT22;41413;52.770;6.892;2023-08-20T01:43:22;17.30;99.90
52889;DHT22;41413;52.770;6.892;2023-08-20T01:45:49;17.20;99.90
52889;DHT22;41413;52.770;6.892;2023-08-20T01:48:16;17.20;99.90
52889;DHT22;41413;52.770;6.892;2023-08-20T01:50:43;17.30;99.90
52889;DHT22;41413;52.770;6.892;2023-08-20T01:53:11;17.20;99.90
52889;DHT22;41413;52.770;6.892;2023-08-20T01:55:38;17.20;99.90
52889;DHT22;41413;52.770;6.892;2023-08-20T01:58:04;17.20;99.90
52889;DHT22;41413;52.770;6.892;2023-08-20T02:00:31;17.20;99.90
52889;DHT22;41413;52.770;6.892;2023-08-20T02:03:00;17.10;99.90
52889;DHT22;41413;52.770;6.892;2023-08-20T02:05:27;17.10;99.90
52889;DHT22;41413;52.770;6.892;2023-08-20T02:07:54;17.00;99.90
52889;DHT22;41413;52.770;6.892;2023-08-20T02:10:20;17.00;99.90
52889;DHT22;41413;52.770;6.892;2023-08-20T02:12:48;17.10;99.90
52889;DHT22;41413;52.770;6.892;2023-08-20T02:15:15;17.10;99.90
52889;DHT22;41413;52.770;6.892;2023-08-20T02:17:42;17.00;99.90
52889;DHT22;41413;52.770;6.892;2023-08-20T02:20:09;16.90;99.90
52889;DHT22;41413;52.770;6.892;2023-08-20T02:22:39;16.90;99.90
52889;DHT22;41413;52.770;6.892;2023-08-20T02:25:06;17.00;99.90
52889;DHT22;41413;52.770;6.892;2023-08-20T02:27:33;16.90;99.90
52889;DHT22;41413;52.770;6.892;2023-08-20T02:30:00;16.90;99.90
52889;DHT22;41413;52.770;6.892;2023-08-20T02:32:27;16.90;99.90
52889;DHT22;41413;52.770;6.892;2023-08-20T02:34:54;16.80;99.90
52889;DHT22;41413;52.770;6.892;2023-08-20T02:37:21;16.80;99.90
52889;DHT22;41413;52.770;6.892;2023-08-20T02:39:47;16.80;99.90
52889;DHT22;41413;52.770;6.892;2023-08-20T02:42:14;16.70;99.90
52889;DHT22;41413;52.770;6.892;2023-08-20T02:44:41;16.80;99.90
52889;DHT22;41413;52.770;6.892;2023-08-20T02:47:07;16.80;99.90
52889;DHT22;41413;52.770;6.892;2023-08-20T02:49:34;16.70;99.90
52889;DHT22;41413;52.770;6.892;2023-08-20T02:52:01;16.70;99.90
52889;DHT22;41413;52.770;6.892;2023-08-20T02:54:29;16.80;99.90
52889;DHT22;41413;52.770;6.892;2023-08-20T02:56:58;16.80;99.90
52889;DHT22;41413;52.770;6.892;2023-08-20T02:59:25;16.70;99.90
52889;DHT22;41413;52.770;6.892;2023-08-20T03:01:52;16.80;99.90
52889;DHT22;41413;52.770;6.892;2023-08-20T03:04:19;16.70;99.90
52889;DHT22;41413;52.770;6.892;2023-08-20T03:06:46;16.80;99.90
52889;DHT22;41413;52.770;6.892;2023-08-20T03:09:13;16.70;99.90
52889;DHT22;41413;52.770;6.892;2023-08-20T03:11:40;16.70;99.90
52889;DHT22;41413;52.770;6.892;2023-08-20T03:14:06;16.70;99.90
52889;DHT22;41413;52.770;6.892;2023-08-20T03:16:33;16.70;99.90
52889;DHT22;41413;52.770;6.892;2023-08-20T03:19:00;16.80;99.90
52889;DHT22;41413;52.770;6.892;2023-08-20T03:21:26;16.70;99.90
52889;DHT22;41413;52.770;6.892;2023-08-20T03:23:53;16.60;99.90
52889;DHT22;41413;52.770;6.892;2023-08-20T03:26:20;16.60;99.90
52889;DHT22;41413;52.770;6.892;2023-08-20T03:28:47;16.60;99.90
52889;DHT22;41413;52.770;6.892;2023-08-20T03:31:13;16.60;99.90
52889;DHT22;41413;52.770;6.892;2023-08-20T03:33:40;16.70;99.90
52889;DHT22;41413;52.770;6.892;2023-08-20T03:36:07;16.50;99.90
52889;DHT22;41413;52.770;6.892;2023-08-20T03:38:34;16.50;99.90
52889;DHT22;41413;52.770;6.892;2023-08-20T03:41:00;16.50;99.90
52889;DHT22;41413;52.770;6.892;2023-08-20T03:43:27;16.50;99.90
52889;DHT22;41413;52.770;6.892;2023-08-20T03:45:54;16.50;99.90
52889;DHT22;41413;52.770;6.892;2023-08-20T03:48:20;16.50;99.90
52889;DHT22;41413;52.770;6.892;2023-08-20T03:50:47;16.50;99.90
52889;DHT22;41413;52.770;6.892;2023-08-20T03:53:14;16.60;99.90
52889;DHT22;41413;52.770;6.892;2023-08-20T03:55:41;16.60;99.90
52889;DHT22;41413;52.770;6.892;2023-08-20T03:58:08;16.60;99.90
52889;DHT22;41413;52.770;6.892;2023-08-20T04:00:35;16.60;99.90
52889;DHT22;41413;52.770;6.892;2023-08-20T04:03:02;16.60;99.90
52889;DHT22;41413;52.770;6.892;2023-08-20T04:05:29;16.60;99.90
52889;DHT22;41413;52.770;6.892;2023-08-20T04:08:01;16.50;99.90
52889;DHT22;41413;52.770;6.892;2023-08-20T04:10:28;16.40;99.90
52889;DHT22;41413;52.770;6.892;2023-08-20T04:12:55;16.40;99.90
52889;DHT22;41413;52.770;6.892;2023-08-20T04:15:22;16.50;99.90
52889;DHT22;41413;52.770;6.892;2023-08-20T04:17:49;16.40;99.90
52889;DHT22;41413;52.770;6.892;2023-08-20T04:20:16;16.40;99.90
52889;DHT22;41413;52.770;6.892;2023-08-20T04:22:43;16.40;99.90
52889;DHT22;41413;52.770;6.892;2023-08-20T04:25:10;16.50;99.90
52889;DHT22;41413;52.770;6.892;2023-08-20T04:27:37;16.50;99.90
52889;DHT22;41413;52.770;6.892;2023-08-20T04:30:04;16.60;99.90
52889;DHT22;41413;52.770;6.892;2023-08-20T04:32:31;16.50;99.90
52889;DHT22;41413;52.770;6.892;2023-08-20T04:34:58;16.40;99.90
52889;DHT22;41413;52.770;6.892;2023-08-20T04:37:26;16.40;99.90
52889;DHT22;41413;52.770;6.892;2023-08-20T04:39:52;16.50;99.90
52889;DHT22;41413;52.770;6.892;2023-08-20T04:42:19;16.40;99.90
52889;DHT22;41413;52.770;6.892;2023-08-20T04:44:46;16.40;99.90
52889;DHT22;41413;52.770;6.892;2023-08-20T04:47:13;16.50;99.90
52889;DHT22;41413;52.770;6.892;2023-08-20T04:49:41;16.50;99.90
52889;DHT22;41413;52.770;6.892;2023-08-20T04:52:08;16.50;99.90
52889;DHT22;41413;52.770;6.892;2023-08-20T04:54:34;16.40;99.90
52889;DHT22;41413;52.770;6.892;2023-08-20T04:57:01;16.40;99.90
52889;DHT22;41413;52.770;6.892;2023-08-20T04:59:28;16.40;99.90
52889;DHT22;41413;52.770;6.892;2023-08-20T05:01:55;16.40;99.90
52889;DHT22;41413;52.770;6.892;2023-08-20T05:04:22;16.40;99.90
52889;DHT22;41413;52.770;6.892;2023-08-20T05:06:49;16.40;99.90
52889;DHT22;41413;52.770;6.892;2023-08-20T05:09:16;16.40;99.90
52889;DHT22;41413;52.770;6.892;2023-08-20T05:11:42;16.40;99.90
52889;DHT22;41413;52.770;6.892;2023-08-20T05:14:09;16.50;99.90
52889;DHT22;41413;52.770;6.892;2023-08-20T05:16:36;16.50;99.90
52889;DHT22;41413;52.770;6.892;2023-08-20T05:19:03;16.50;99.90
52889;DHT22;41413;52.770;6.892;2023-08-20T05:21:30;16.50;99.90
52889;DHT22;41413;52.770;6.892;2023-08-20T05:23:57;16.60;99.90
52889;DHT22;41413;52.770;6.892;2023-08-20T05:26:23;16.60;99.90
52889;DHT22;41413;52.770;6.892;2023-08-20T05:28:50;16.60;99.90
52889;DHT22;41413;52.770;6.892;2023-08-20T05:31:17;16.70;99.90
52889;DHT22;41413;52.770;6.892;2023-08-20T05:33:44;16.80;99.90
52889;DHT22;41413;52.770;6.892;2023-08-20T05:36:11;16.70;99.90
52889;DHT22;41413;52.770;6.892;2023-08-20T05:38:37;16.80;99.90
52889;DHT22;41413;52.770;6.892;2023-08-20T05:41:04;16.80;99.90
52889;DHT22;41413;52.770;6.892;2023-08-20T05:43:31;16.80;99.90
52889;DHT22;41413;52.770;6.892;2023-08-20T05:45:57;16.80;99.90
52889;DHT22;41413;52.770;6.892;2023-08-20T05:48:24;16.80;99.90
52889;DHT22;41413;52.770;6.892;2023-08-20T05:50:51;16.90;99.90
52889;DHT22;41413;52.770;6.892;2023-08-20T05:53:18;16.90;99.90
52889;DHT22;41413;52.770;6.892;2023-08-20T05:55:44;16.90;99.90
52889;DHT22;41413;52.770;6.892;2023-08-20T05:58:11;16.90;99.90
52889;DHT22;41413;52.770;6.892;2023-08-20T06:00:38;17.00;99.90
52889;DHT22;41413;52.770;6.892;2023-08-20T06:03:05;17.10;99.90
52889;DHT22;41413;52.770;6.892;2023-08-20T06:05:31;17.10;99.90
52889;DHT22;41413;52.770;6.892;2023-08-20T06:07:58;17.10;99.90
52889;DHT22;41413;52.770;6.892;2023-08-20T06:10:25;17.20;99.90
52889;DHT22;41413;52.770;6.892;2023-08-20T06:12:53;17.30;99.90
52889;DHT22;41413;52.770;6.892;2023-08-20T06:15:20;17.20;99.90
52889;DHT22;41413;52.770;6.892;2023-08-20T06:17:47;17.40;99.90
52889;DHT22;41413;52.770;6.892;2023-08-20T06:20:14;17.40;99.90
52889;DHT22;41413;52.770;6.892;2023-08-20T06:22:40;17.60;99.90
52889;DHT22;41413;52.770;6.892;2023-08-20T06:25:07;17.70;99.90
52889;DHT22;41413;52.770;6.892;2023-08-20T06:27:34;17.80;99.90
52889;DHT22;41413;52.770;6.892;2023-08-20T06:30:02;17.90;99.90
52889;DHT22;41413;52.770;6.892;2023-08-20T06:32:29;17.90;99.90
52889;DHT22;41413;52.770;6.892;2023-08-20T06:34:56;17.90;99.90
52889;DHT22;41413;52.770;6.892;2023-08-20T06:37:23;17.90;99.90
52889;DHT22;41413;52.770;6.892;2023-08-20T06:39:49;17.90;99.90
52889;DHT22;41413;52.770;6.892;2023-08-20T06:42:16;18.00;99.90
52889;DHT22;41413;52.770;6.892;2023-08-20T06:44:43;18.00;99.90
52889;DHT22;41413;52.770;6.892;2023-08-20T06:47:10;18.10;99.90
52889;DHT22;41413;52.770;6.892;2023-08-20T06:49:36;18.20;99.90
52889;DHT22;41413;52.770;6.892;2023-08-20T06:52:03;18.20;99.90
52889;DHT22;41413;52.770;6.892;2023-08-20T06:54:30;18.30;99.90
52889;DHT22;41413;52.770;6.892;2023-08-20T06:56:57;18.30;99.90
52889;DHT22;41413;52.770;6.892;2023-08-20T06:59:23;18.30;99.90
52889;DHT22;41413;52.770;6.892;2023-08-20T07:01:50;18.30;99.90
52889;DHT22;41413;52.770;6.892;2023-08-20T07:04:17;18.40;99.90
52889;DHT22;41413;52.770;6.892;2023-08-20T07:06:44;18.40;99.90
52889;DHT22;41413;52.770;6.892;2023-08-20T07:09:11;18.40;99.90
52889;DHT22;41413;52.770;6.892;2023-08-20T07:11:37;18.50;99.90
52889;DHT22;41413;52.770;6.892;2023-08-20T07:14:04;18.60;99.90
52889;DHT22;41413;52.770;6.892;2023-08-20T07:16:31;18.60;99.90
52889;DHT22;41413;52.770;6.892;2023-08-20T07:18:58;18.60;99.90
52889;DHT22;41413;52.770;6.892;2023-08-20T07:21:25;18.60;99.90
52889;DHT22;41413;52.770;6.892;2023-08-20T07:23:51;18.60;99.90
52889;DHT22;41413;52.770;6.892;2023-08-20T07:26:18;18.70;99.90
52889;DHT22;41413;52.770;6.892;2023-08-20T07:28:45;18.80;99.90
52889;DHT22;41413;52.770;6.892;2023-08-20T07:31:31;18.80;99.90
52889;DHT22;41413;52.770;6.892;2023-08-20T07:34:01;18.90;99.90
52889;DHT22;41413;52.770;6.892;2023-08-20T07:36:31;18.90;99.90
52889;DHT22;41413;52.770;6.892;2023-08-20T07:38:59;18.90;99.90
52889;DHT22;41413;52.770;6.892;2023-08-20T07:41:28;19.00;99.90
52889;DHT22;41413;52.770;6.892;2023-08-20T07:43:55;19.10;99.90
52889;DHT22;41413;52.770;6.892;2023-08-20T07:46:22;19.10;99.90
52889;DHT22;41413;52.770;6.892;2023-08-20T07:48:48;19.20;99.90
52889;DHT22;41413;52.770;6.892;2023-08-20T07:51:15;19.20;99.90
52889;DHT22;41413;52.770;6.892;2023-08-20T07:53:42;19.30;99.90
52889;DHT22;41413;52.770;6.892;2023-08-20T07:56:08;19.40;99.90
52889;DHT22;41413;52.770;6.892;2023-08-20T07:58:35;19.40;99.90
52889;DHT22;41413;52.770;6.892;2023-08-20T08:01:02;19.50;99.90
52889;DHT22;41413;52.770;6.892;2023-08-20T08:03:29;19.50;99.90
52889;DHT22;41413;52.770;6.892;2023-08-20T08:05:56;19.60;99.90
52889;DHT22;41413;52.770;6.892;2023-08-20T08:08:23;19.60;99.90
52889;DHT22;41413;52.770;6.892;2023-08-20T08:10:50;19.90;99.90
52889;DHT22;41413;52.770;6.892;2023-08-20T08:13:22;20.20;99.90
52889;DHT22;41413;52.770;6.892;2023-08-20T08:15:50;20.40;99.90
52889;DHT22;41413;52.770;6.892;2023-08-20T08:18:18;20.40;99.90
52889;DHT22;41413;52.770;6.892;2023-08-20T08:20:45;20.40;99.90
52889;DHT22;41413;52.770;6.892;2023-08-20T08:23:12;20.50;99.90
52889;DHT22;41413;52.770;6.892;2023-08-20T08:25:39;20.60;99.90
52889;DHT22;41413;52.770;6.892;2023-08-20T08:28:06;20.60;99.90
52889;DHT22;41413;52.770;6.892;2023-08-20T08:30:33;20.70;99.90
52889;DHT22;41413;52.770;6.892;2023-08-20T08:33:00;20.90;99.90
52889;DHT22;41413;52.770;6.892;2023-08-20T08:35:27;20.80;99.90
52889;DHT22;41413;52.770;6.892;2023-08-20T08:37:53;21.00;99.90
52889;DHT22;41413;52.770;6.892;2023-08-20T08:40:21;21.10;99.90
52889;DHT22;41413;52.770;6.892;2023-08-20T08:42:48;21.30;99.90
52889;DHT22;41413;52.770;6.892;2023-08-20T08:45:21;21.60;99.90
52889;DHT22;41413;52.770;6.892;2023-08-20T08:47:48;22.20;99.90
52889;DHT22;41413;52.770;6.892;2023-08-20T08:50:16;22.80;99.90
52889;DHT22;41413;52.770;6.892;2023-08-20T08:52:45;24.00;99.90
52889;DHT22;41413;52.770;6.892;2023-08-20T08:55:12;25.20;99.90
52889;DHT22;41413;52.770;6.892;2023-08-20T08:57:39;26.00;99.90
52889;DHT22;41413;52.770;6.892;2023-08-20T09:00:06;26.50;99.90
52889;DHT22;41413;52.770;6.892;2023-08-20T09:02:33;27.50;99.90
52889;DHT22;41413;52.770;6.892;2023-08-20T09:05:00;28.30;99.90
52889;DHT22;41413;52.770;6.892;2023-08-20T09:07:27;29.10;99.90
52889;DHT22;41413;52.770;6.892;2023-08-20T09:09:58;29.20;96.80
52889;DHT22;41413;52.770;6.892;2023-08-20T09:12:26;29.50;96.40
52889;DHT22;41413;52.770;6.892;2023-08-20T09:14:54;29.70;97.00
52889;DHT22;41413;52.770;6.892;2023-08-20T09:17:25;30.10;97.00
52889;DHT22;41413;52.770;6.892;2023-08-20T09:19:55;30.50;96.30
52889;DHT22;41413;52.770;6.892;2023-08-20T09:22:26;30.70;93.60
52889;DHT22;41413;52.770;6.892;2023-08-20T09:24:55;29.30;90.30
52889;DHT22;41413;52.770;6.892;2023-08-20T09:27:23;29.70;93.90
52889;DHT22;41413;52.770;6.892;2023-08-20T09:29:50;29.50;92.30
52889;DHT22;41413;52.770;6.892;2023-08-20T09:32:27;29.70;93.20
52889;DHT22;41413;52.770;6.892;2023-08-20T09:34:55;30.10;88.00
52889;DHT22;41413;52.770;6.892;2023-08-20T09:37:23;30.10;89.70
52889;DHT22;41413;52.770;6.892;2023-08-20T09:39:50;30.20;86.60
52889;DHT22;41413;52.770;6.892;2023-08-20T09:42:17;30.10;90.20
52889;DHT22;41413;52.770;6.892;2023-08-20T09:44:45;30.70;91.10
52889;DHT22;41413;52.770;6.892;2023-08-20T09:47:17;30.90;84.80
52889;DHT22;41413;52.770;6.892;2023-08-20T09:49:47;30.60;85.80
52889;DHT22;41413;52.770;6.892;2023-08-20T09:52:34;30.00;86.60
52889;DHT22;41413;52.770;6.892;2023-08-20T09:55:27;30.60;83.60
52889;DHT22;41413;52.770;6.892;2023-08-20T09:57:55;30.40;87.10
52889;DHT22;41413;52.770;6.892;2023-08-20T10:00:23;30.40;87.90
52889;DHT22;41413;52.770;6.892;2023-08-20T10:02:50;30.80;89.70
52889;DHT22;41413;52.770;6.892;2023-08-20T10:05:18;31.00;85.30
52889;DHT22;41413;52.770;6.892;2023-08-20T10:07:47;30.00;86.20
52889;DHT22;41413;52.770;6.892;2023-08-20T10:10:15;30.10;86.60
52889;DHT22;41413;52.770;6.892;2023-08-20T10:12:43;29.50;87.70
52889;DHT22;41413;52.770;6.892;2023-08-20T10:15:14;29.80;88.00
52889;DHT22;41413;52.770;6.892;2023-08-20T10:17:43;29.90;88.90
52889;DHT22;41413;52.770;6.892;2023-08-20T10:20:13;30.00;86.60
52889;DHT22;41413;52.770;6.892;2023-08-20T10:22:42;30.20;85.80
52889;DHT22;41413;52.770;6.892;2023-08-20T10:25:11;30.50;85.20
52889;DHT22;41413;52.770;6.892;2023-08-20T10:27:41;30.20;86.10
52889;DHT22;41413;52.770;6.892;2023-08-20T10:30:23;30.00;85.90
52889;DHT22;41413;52.770;6.892;2023-08-20T10:32:53;30.00;81.70
52889;DHT22;41413;52.770;6.892;2023-08-20T10:38:06;30.50;82.80
52889;DHT22;41413;52.770;6.892;2023-08-20T10:46:16;30.00;83.20
52889;DHT22;41413;52.770;6.892;2023-08-20T10:48:57;30.10;82.40
52889;DHT22;41413;52.770;6.892;2023-08-20T10:51:37;28.70;86.10
52889;DHT22;41413;52.770;6.892;2023-08-20T10:54:07;29.40;88.90
52889;DHT22;41413;52.770;6.892;2023-08-20T10:59:09;29.40;87.40
52889;DHT22;41413;52.770;6.892;2023-08-20T11:01:39;29.20;86.60
52889;DHT22;41413;52.770;6.892;2023-08-20T11:04:06;29.40;88.50
52889;DHT22;41413;52.770;6.892;2023-08-20T11:06:34;29.10;85.90
52889;DHT22;41413;52.770;6.892;2023-08-20T11:09:02;28.80;85.30
52889;DHT22;41413;52.770;6.892;2023-08-20T11:11:32;29.40;87.90
52889;DHT22;41413;52.770;6.892;2023-08-20T11:14:07;29.50;88.60
52889;DHT22;41413;52.770;6.892;2023-08-20T11:16:35;29.50;83.70
52889;DHT22;41413;52.770;6.892;2023-08-20T11:19:04;29.50;85.60
52889;DHT22;41413;52.770;6.892;2023-08-20T11:21:43;29.60;85.50
52889;DHT22;41413;52.770;6.892;2023-08-20T11:24:10;29.60;85.90
52889;DHT22;41413;52.770;6.892;2023-08-20T11:26:42;29.90;85.00
52889;DHT22;41413;52.770;6.892;2023-08-20T11:29:12;29.60;84.00
52889;DHT22;41413;52.770;6.892;2023-08-20T11:31:39;29.60;84.90
52889;DHT22;41413;52.770;6.892;2023-08-20T11:34:06;29.70;85.00
52889;DHT22;41413;52.770;6.892;2023-08-20T11:36:35;30.00;86.10
52889;DHT22;41413;52.770;6.892;2023-08-20T11:39:02;30.00;84.00
52889;DHT22;41413;52.770;6.892;2023-08-20T11:41:29;29.70;84.50
52889;DHT22;41413;52.770;6.892;2023-08-20T11:43:56;30.00;84.40
52889;DHT22;41413;52.770;6.892;2023-08-20T11:46:24;29.90;83.80
52889;DHT22;41413;52.770;6.892;2023-08-20T11:49:07;30.00;83.30
52889;DHT22;41413;52.770;6.892;2023-08-20T11:51:46;29.40;81.20
52889;DHT22;41413;52.770;6.892;2023-08-20T11:54:15;29.20;81.30
52889;DHT22;41413;52.770;6.892;2023-08-20T11:56:49;29.00;83.20
52889;DHT22;41413;52.770;6.892;2023-08-20T11:59:20;29.30;83.70
52889;DHT22;41413;52.770;6.892;2023-08-20T12:02:01;29.50;83.40
52889;DHT22;41413;52.770;6.892;2023-08-20T12:04:29;29.10;81.20
52889;DHT22;41413;52.770;6.892;2023-08-20T12:07:03;29.00;82.50
52889;DHT22;41413;52.770;6.892;2023-08-20T12:09:32;28.90;81.60
52889;DHT22;41413;52.770;6.892;2023-08-20T12:11:59;28.70;85.10
52889;DHT22;41413;52.770;6.892;2023-08-20T12:14:25;28.50;85.30
52889;DHT22;41413;52.770;6.892;2023-08-20T12:16:55;28.40;84.30
52889;DHT22;41413;52.770;6.892;2023-08-20T12:19:22;29.10;85.90
52889;DHT22;41413;52.770;6.892;2023-08-20T12:21:50;28.70;85.80
52889;DHT22;41413;52.770;6.892;2023-08-20T12:24:17;28.90;87.00
52889;DHT22;41413;52.770;6.892;2023-08-20T12:26:46;28.90;87.50
52889;DHT22;41413;52.770;6.892;2023-08-20T12:29:13;29.30;87.90
52889;DHT22;41413;52.770;6.892;2023-08-20T12:31:40;29.00;86.60
52889;DHT22;41413;52.770;6.892;2023-08-20T12:34:08;28.60;86.00
52889;DHT22;41413;52.770;6.892;2023-08-20T12:36:35;28.60;89.10
52889;DHT22;41413;52.770;6.892;2023-08-20T12:39:03;28.90;89.50
52889;DHT22;41413;52.770;6.892;2023-08-20T12:41:31;28.90;88.30
52889;DHT22;41413;52.770;6.892;2023-08-20T12:43:58;28.90;88.60
52889;DHT22;41413;52.770;6.892;2023-08-20T12:46:25;29.10;88.60
52889;DHT22;41413;52.770;6.892;2023-08-20T12:48:52;29.10;87.60
52889;DHT22;41413;52.770;6.892;2023-08-20T12:51:19;28.80;86.60
52889;DHT22;41413;52.770;6.892;2023-08-20T12:53:46;29.00;87.70
52889;DHT22;41413;52.770;6.892;2023-08-20T12:56:12;29.20;88.40
52889;DHT22;41413;52.770;6.892;2023-08-20T12:58:41;29.30;87.80
52889;DHT22;41413;52.770;6.892;2023-08-20T13:01:07;29.20;87.70
52889;DHT22;41413;52.770;6.892;2023-08-20T13:03:34;29.20;87.40
52889;DHT22;41413;52.770;6.892;2023-08-20T13:06:02;29.20;87.20
52889;DHT22;41413;52.770;6.892;2023-08-20T13:08:28;29.10;87.60
52889;DHT22;41413;52.770;6.892;2023-08-20T13:10:57;29.30;86.90
52889;DHT22;41413;52.770;6.892;2023-08-20T13:13:25;29.00;83.00
52889;DHT22;41413;52.770;6.892;2023-08-20T13:15:52;28.80;86.20
52889;DHT22;41413;52.770;6.892;2023-08-20T13:18:20;28.80;85.40
52889;DHT22;41413;52.770;6.892;2023-08-20T13:20:52;28.80;83.80
52889;DHT22;41413;52.770;6.892;2023-08-20T13:23:19;29.20;85.10
52889;DHT22;41413;52.770;6.892;2023-08-20T13:25:46;29.10;85.10
52889;DHT22;41413;52.770;6.892;2023-08-20T13:28:13;29.30;83.90
52889;DHT22;41413;52.770;6.892;2023-08-20T13:30:40;29.40;81.90
52889;DHT22;41413;52.770;6.892;2023-08-20T13:33:07;29.10;83.40
52889;DHT22;41413;52.770;6.892;2023-08-20T13:35:34;29.20;84.30
52889;DHT22;41413;52.770;6.892;2023-08-20T13:38:01;29.30;84.00
52889;DHT22;41413;52.770;6.892;2023-08-20T13:40:28;29.40;83.60
52889;DHT22;41413;52.770;6.892;2023-08-20T13:42:55;29.10;83.90
52889;DHT22;41413;52.770;6.892;2023-08-20T13:45:22;28.80;84.30
52889;DHT22;41413;52.770;6.892;2023-08-20T13:47:48;28.60;82.70
52889;DHT22;41413;52.770;6.892;2023-08-20T13:50:15;28.50;83.40
52889;DHT22;41413;52.770;6.892;2023-08-20T13:52:43;28.60;83.80
52889;DHT22;41413;52.770;6.892;2023-08-20T13:55:09;29.00;85.40
52889;DHT22;41413;52.770;6.892;2023-08-20T13:57:37;29.20;85.70
52889;DHT22;41413;52.770;6.892;2023-08-20T14:00:04;29.20;86.10
52889;DHT22;41413;52.770;6.892;2023-08-20T14:02:39;29.20;86.10
52889;DHT22;41413;52.770;6.892;2023-08-20T14:05:06;29.10;86.80
52889;DHT22;41413;52.770;6.892;2023-08-20T14:07:33;28.90;86.30
52889;DHT22;41413;52.770;6.892;2023-08-20T14:10:02;28.90;85.70
52889;DHT22;41413;52.770;6.892;2023-08-20T14:12:30;28.90;85.70
52889;DHT22;41413;52.770;6.892;2023-08-20T14:14:57;28.90;85.80
52889;DHT22;41413;52.770;6.892;2023-08-20T14:17:24;28.90;85.30
52889;DHT22;41413;52.770;6.892;2023-08-20T14:19:51;28.80;86.50
52889;DHT22;41413;52.770;6.892;2023-08-20T14:22:18;28.80;86.80
52889;DHT22;41413;52.770;6.892;2023-08-20T14:24:45;28.90;86.70
52889;DHT22;41413;52.770;6.892;2023-08-20T14:27:12;28.90;86.70
52889;DHT22;41413;52.770;6.892;2023-08-20T14:29:40;28.10;85.10
52889;DHT22;41413;52.770;6.892;2023-08-20T14:32:07;28.10;86.80
52889;DHT22;41413;52.770;6.892;2023-08-20T14:34:34;28.40;88.10
52889;DHT22;41413;52.770;6.892;2023-08-20T14:37:00;28.50;87.10
52889;DHT22;41413;52.770;6.892;2023-08-20T14:39:27;28.50;86.40
52889;DHT22;41413;52.770;6.892;2023-08-20T14:41:57;28.40;81.60
52889;DHT22;41413;52.770;6.892;2023-08-20T14:44:24;28.30;82.50
52889;DHT22;41413;52.770;6.892;2023-08-20T14:46:51;28.30;82.60
52889;DHT22;41413;52.770;6.892;2023-08-20T14:49:18;28.30;80.10
52889;DHT22;41413;52.770;6.892;2023-08-20T14:51:45;28.30;82.50
52889;DHT22;41413;52.770;6.892;2023-08-20T14:54:12;28.30;81.80
52889;DHT22;41413;52.770;6.892;2023-08-20T14:56:39;28.30;81.40
52889;DHT22;41413;52.770;6.892;2023-08-20T14:59:06;27.90;80.20
52889;DHT22;41413;52.770;6.892;2023-08-20T15:01:32;27.50;80.50
52889;DHT22;41413;52.770;6.892;2023-08-20T15:03:59;27.20;82.10
52889;DHT22;41413;52.770;6.892;2023-08-20T15:06:26;27.20;81.60
52889;DHT22;41413;52.770;6.892;2023-08-20T15:08:53;27.00;82.60
52889;DHT22;41413;52.770;6.892;2023-08-20T15:11:20;27.20;83.30
52889;DHT22;41413;52.770;6.892;2023-08-20T15:13:47;27.10;82.10
52889;DHT22;41413;52.770;6.892;2023-08-20T15:16:13;26.80;82.70
52889;DHT22;41413;52.770;6.892;2023-08-20T15:18:40;26.90;83.30
52889;DHT22;41413;52.770;6.892;2023-08-20T15:21:07;27.00;81.70
52889;DHT22;41413;52.770;6.892;2023-08-20T15:23:38;27.00;81.60
52889;DHT22;41413;52.770;6.892;2023-08-20T15:26:04;27.00;81.60
52889;DHT22;41413;52.770;6.892;2023-08-20T15:28:31;27.00;80.60
52889;DHT22;41413;52.770;6.892;2023-08-20T15:31:00;27.00;82.00
52889;DHT22;41413;52.770;6.892;2023-08-20T15:33:28;27.00;82.30
52889;DHT22;41413;52.770;6.892;2023-08-20T15:35:56;27.00;82.80
52889;DHT22;41413;52.770;6.892;2023-08-20T15:38:23;27.00;84.00
52889;DHT22;41413;52.770;6.892;2023-08-20T15:40:51;26.80;83.70
52889;DHT22;41413;52.770;6.892;2023-08-20T15:43:17;26.70;84.90
52889;DHT22;41413;52.770;6.892;2023-08-20T15:45:44;26.80;84.60
52889;DHT22;41413;52.770;6.892;2023-08-20T15:48:12;26.90;85.30
52889;DHT22;41413;52.770;6.892;2023-08-20T15:50:40;26.90;84.30
52889;DHT22;41413;52.770;6.892;2023-08-20T15:53:07;26.90;84.10